Friday, May 25, 2018, 8:31 AM EDT
Back to Local

KALB, Albany International Airport

Location: Latham, NY, United States Lat: 42.75
Local Time: 8:31 AM EDT (12:31 GMT) Lon: -73.8
Time Zone: US/Eastern Elev: 285 ft

Show me the last for .
Show Decoded

2018-05-25 07:51 METAR KALB 251151Z 18004KT 10SM FEW270 17/10 A3000 RMK AO2 SLP158 T01720100
                 10172 20111 58001 =
2018-05-25 06:51 METAR KALB 251051Z 18004KT 10SM FEW270 15/10 A3000 RMK AO2 SLP159 T01500100 =
2018-05-25 05:51 METAR KALB 250951Z 20004KT 10SM FEW270 13/09 A3000 RMK AO2 SLP159 T01280089 =
2018-05-25 04:51 METAR KALB 250851Z 00000KT 10SM CLR 12/08 A3000 RMK AO2 SLP158 T01170078 56005 =
2018-05-25 03:51 METAR KALB 250751Z 25003KT 10SM CLR 12/08 A3001 RMK AO2 SLP160 T01220078 =
2018-05-25 02:51 METAR KALB 250651Z 00000KT 10SM CLR 14/08 A3000 RMK AO2 SLP159 T01390083 =
2018-05-25 01:51 METAR KALB 250551Z 00000KT 10SM CLR 15/08 A3001 RMK AO2 SLP163 T01500078 10228
                 20139 58009 =
2018-05-25 00:51 METAR KALB 250451Z 00000KT 10SM CLR 16/08 A3003 RMK AO2 SLP167 T01610078
                 402670111 =
2018-05-24 23:51 METAR KALB 250351Z 00000KT 10SM CLR 17/08 A3003 RMK AO2 SLP169 T01670083 =
2018-05-24 22:51 METAR KALB 250251Z 20004KT 10SM FEW260 18/07 A3004 RMK AO2 SLP172 T01830072
                 55000 =
2018-05-24 21:51 METAR KALB 250151Z 23005KT 10SM FEW260 19/07 A3005 RMK AO2 SLP174 T01940067 =
2018-05-24 20:51 METAR KALB 250051Z 25006KT 10SM FEW260 21/06 A3003 RMK AO2 SLP170 T02110056 =
2018-05-24 19:51 METAR KALB 242351Z 28008KT 10SM FEW260 23/07 A3004 RMK AO2 SLP172 T02280072
                 10267 20222 55003 =
2018-05-24 18:51 METAR KALB 242251Z 27008KT 10SM FEW260 26/06 A3003 RMK AO2 SLP168 T02560056 =
2018-05-24 17:51 METAR KALB 242151Z 27012KT 10SM FEW260 26/06 A3004 RMK AO2 SLP171 T02560061 =
2018-05-24 16:51 METAR KALB 242051Z 27010KT 10SM FEW260 26/06 A3005 RMK AO2 SLP176 T02610056
                 56017 =
2018-05-24 15:51 METAR KALB 241951Z 28006KT 10SM FEW260 27/06 A3006 RMK AO2 SLP180 T02670061 =
2018-05-24 14:51 METAR KALB 241851Z 32006KT 10SM FEW260 26/07 A3008 RMK AO2 SLP184 T02610067 =
2018-05-24 13:51 METAR KALB 241751Z 30009KT 260V330 10SM FEW260 25/04 A3010 RMK AO2 SLP193
                 T02500044 10250 20167 58020 =
2018-05-24 12:51 METAR KALB 241651Z 31010G14KT 10SM FEW260 24/04 A3012 RMK AO2 SLP200 T02390039 =
2018-05-24 11:51 METAR KALB 241551Z 31011KT 10SM FEW260 23/02 A3015 RMK AO2 SLP207 T02280017 =
2018-05-24 10:51 METAR KALB 241451Z 35007KT 10SM FEW160 FEW260 21/02 A3016 RMK AO2 SLP211 ACSL W
                 T02110022 51002 =
2018-05-24 09:51 METAR KALB 241351Z 35008KT 10SM FEW180 FEW260 20/02 A3016 RMK AO2 SLP211 ACSL
                 DSNT N T02000022 =
2018-05-24 08:51 METAR KALB 241251Z 32008KT 10SM FEW180 FEW260 18/06 A3016 RMK AO2 SLP212 ACSL
                 DSNT N T01830056 =

Support USWX by starting your Amazon purchase here.